Time;durP1;ratioP1;P1;durP2;ratioP2;P2;SDS_P1;SDS_P2;PMS_P1;PMS_P2;Temp;Humidity;BMP_temperature;BMP_pressure;BME280_temperature;BME280_humidity;BME280_pressure;Samples;Min_cycle;Max_cycle;Signal;HPM_P1;HPM_P2
2022/02/11 00:01:00;;;;;;;9.17;4.17;;;;;;;5.67;72.30;101400.94;5063491;28;20401;-69
2022/02/11 00:08:54;;;;;;;7.50;4.33;;;;;;;5.63;72.48;101392.97;5061082;28;20411;-68
2022/02/11 00:11:29;;;;;;;9.43;4.33;;;;;;;5.58;71.91;101385.03;5060676;28;20459;-68
2022/02/11 00:13:55;;;;;;;6.17;4.50;;;;;;;5.58;72.58;101382.44;5060947;28;20181;-69
2022/02/11 00:16:20;;;;;;;7.67;4.30;;;;;;;5.32;72.69;101383.97;5061015;28;20741;-68
2022/02/11 00:18:45;;;;;;;7.30;4.40;;;;;;;5.55;73.19;101377.16;5060747;28;20169;-68
2022/02/11 00:21:11;;;;;;;9.87;3.80;;;;;;;5.46;74.00;101387.13;5061125;28;20165;-68
2022/02/11 00:23:38;;;;;;;10.20;4.60;;;;;;;5.45;72.35;101385.34;5060403;28;20193;-68
2022/02/11 00:26:04;;;;;;;14.27;4.40;;;;;;;5.23;73.13;101380.16;5060331;28;20170;-68
2022/02/11 00:29:24;;;;;;;10.33;4.60;;;;;;;5.26;75.02;101387.16;5061194;28;20750;-67
2022/02/11 00:33:53;;;;;;;13.27;4.30;;;;;;;5.56;74.01;101368.56;5060374;28;20428;-68
2022/02/11 00:36:22;;;;;;;9.80;4.30;;;;;;;5.43;72.27;101369.78;5060425;28;20415;-68
2022/02/11 00:46:44;;;;;;;9.50;4.90;;;;;;;5.32;73.73;101364.16;5060202;28;20741;-67
2022/02/11 01:02:51;;;;;;;8.37;4.50;;;;;;;5.46;73.08;101354.38;5059395;28;20461;-68
2022/02/11 01:05:16;;;;;;;9.70;4.73;;;;;;;5.16;72.70;101356.59;5059813;28;20562;-68
2022/02/11 01:07:42;;;;;;;11.23;4.33;;;;;;;4.85;74.76;101361.34;5059862;28;20412;-67
2022/02/11 01:10:07;;;;;;;13.97;4.90;;;;;;;4.93;74.20;101361.69;5059947;28;20180;-67
2022/02/11 01:12:33;;;;;;;10.50;4.60;;;;;;;5.39;73.10;101358.41;5059900;28;20201;-68
2022/02/11 01:14:59;;;;;;;9.93;4.20;;;;;;;5.27;72.68;101364.81;5059643;28;20173;-68
2022/02/11 01:17:42;;;;;;;14.93;4.40;;;;;;;5.03;73.43;101361.25;5059602;28;20426;-68
2022/02/11 01:20:15;;;;;;;10.80;4.27;;;;;;;5.08;73.99;101358.00;5059652;28;20443;-68
2022/02/11 01:25:47;;;;;;;6.57;4.63;;;;;;;5.17;75.21;101358.38;5059321;28;20637;-68
2022/02/11 01:28:32;;;;;;;6.23;4.27;;;;;;;5.06;74.68;101355.34;5059316;28;20742;-67
2022/02/11 01:42:32;;;;;;;9.73;4.50;;;;;;;5.00;75.61;101349.91;5059070;28;20448;-69
2022/02/11 01:44:38;;;;;;;14.43;4.50;;;;;;;4.94;74.87;101354.81;5058957;28;20458;-68
2022/02/11 01:55:50;;;;;;;11.47;4.80;;;;;;;4.65;74.94;101338.94;5058503;28;20724;-68
2022/02/11 02:01:06;;;;;;;9.47;4.10;;;;;;;4.86;75.31;101337.28;5058717;28;20694;-67
2022/02/11 02:06:20;;;;;;;13.50;4.93;;;;;;;4.73;74.76;101332.41;5058726;28;20419;-67
2022/02/11 02:18:11;;;;;;;8.80;5.10;;;;;;;4.79;74.16;101319.75;5058517;28;20430;-67
2022/02/11 02:22:28;;;;;;;17.57;5.60;;;;;;;4.63;74.64;101312.19;5057885;28;20836;-68
2022/02/11 02:25:07;;;;;;;15.10;4.90;;;;;;;4.85;73.59;101319.13;5058009;28;20495;-68
2022/02/11 02:33:18;;;;;;;12.60;5.40;;;;;;;4.62;75.29;101326.78;5057322;28;20559;-67
2022/02/11 02:57:46;;;;;;;14.73;6.23;;;;;;;4.31;76.27;101296.16;5057856;28;20480;-67
2022/02/11 03:51:59;;;;;;;11.67;5.30;;;;;;;4.51;73.34;101259.19;5060746;28;20559;-67
2022/02/11 04:55:01;;;;;;;14.83;6.73;;;;;;;4.10;74.34;101237.63;5059875;28;20515;-67
2022/02/11 05:00:14;;;;;;;14.70;6.60;;;;;;;4.54;73.37;101223.16;5059988;28;20419;-68
2022/02/11 05:02:45;;;;;;;9.60;5.80;;;;;;;4.58;74.43;101220.72;5059670;28;20678;-68
2022/02/11 05:05:10;;;;;;;13.80;6.27;;;;;;;4.59;73.49;101227.63;5058959;28;20672;-67
2022/02/11 05:07:36;;;;;;;15.20;6.90;;;;;;;4.45;73.48;101214.16;5059957;28;20430;-67
2022/02/11 05:10:02;;;;;;;10.70;7.10;;;;;;;4.15;73.96;101223.22;5059819;28;20174;-69
2022/02/11 05:12:28;;;;;;;12.33;6.47;;;;;;;4.46;73.84;101226.25;5060095;28;20205;-69
2022/02/11 05:14:53;;;;;;;16.63;6.40;;;;;;;4.46;73.32;101226.25;5059387;28;20684;-67
2022/02/11 05:17:18;;;;;;;11.13;6.63;;;;;;;4.51;73.41;101232.50;5059471;28;20174;-67
2022/02/11 05:19:44;;;;;;;8.50;6.53;;;;;;;4.52;72.89;101236.84;5060178;28;20593;-67
2022/02/11 05:22:09;;;;;;;10.80;7.80;;;;;;;4.45;73.80;101234.78;5059269;28;20251;-68
2022/02/11 05:24:34;;;;;;;17.17;9.17;;;;;;;4.34;74.46;101224.91;5059187;28;20173;-66
2022/02/11 05:27:00;;;;;;;9.90;7.47;;;;;;;4.75;72.40;101221.41;5059935;28;20493;-67
2022/02/11 05:29:25;;;;;;;9.70;7.30;;;;;;;4.66;72.84;101229.66;5059478;28;20287;-67
2022/02/11 05:31:51;;;;;;;14.43;7.90;;;;;;;4.71;71.89;101221.28;5059158;28;20438;-67
2022/02/11 05:34:16;;;;;;;16.67;7.20;;;;;;;4.45;73.04;101209.88;5059469;28;20210;-68
2022/02/11 05:36:42;;;;;;;9.20;7.43;;;;;;;4.60;73.95;101209.63;5058514;28;20416;-68
2022/02/11 05:39:07;;;;;;;13.00;7.13;;;;;;;4.62;72.15;101202.81;5058654;28;20177;-68
2022/02/11 05:41:32;;;;;;;16.03;8.60;;;;;;;4.56;72.38;101207.75;5062023;28;20475;-68
2022/02/11 05:43:58;;;;;;;17.40;7.53;;;;;;;4.85;72.23;101208.06;5058975;28;20170;-68
2022/02/11 05:46:27;;;;;;;12.83;6.80;;;;;;;4.29;72.64;101212.59;5059140;28;20169;-68
2022/02/11 05:48:53;;;;;;;15.77;7.57;;;;;;;4.54;72.98;101214.53;5059793;28;20170;-68
2022/02/11 05:51:18;;;;;;;12.03;8.20;;;;;;;4.47;73.04;101212.53;5058867;28;20945;-67
2022/02/11 05:53:44;;;;;;;16.07;9.07;;;;;;;4.46;72.83;101210.75;5059111;28;20434;-68
2022/02/11 05:56:09;;;;;;;15.67;7.10;;;;;;;4.64;73.36;101205.47;5058677;28;20172;-68
2022/02/11 05:58:34;;;;;;;9.87;7.30;;;;;;;4.47;73.32;101208.22;5058614;28;20188;-67
2022/02/11 06:01:00;;;;;;;12.87;7.10;;;;;;;4.59;73.20;101206.97;5058561;28;20214;-67
2022/02/11 06:03:25;;;;;;;13.13;7.40;;;;;;;4.40;75.15;101206.22;5058158;28;20312;-67
2022/02/11 06:05:51;;;;;;;10.93;6.90;;;;;;;4.65;72.87;101202.94;5058594;28;20234;-67
2022/02/11 06:08:16;;;;;;;14.63;7.17;;;;;;;4.63;72.77;101203.72;5058560;28;20428;-68
2022/02/11 06:10:41;;;;;;;12.03;6.77;;;;;;;4.35;73.75;101205.13;5058872;28;20204;-68
2022/02/11 06:13:06;;;;;;;17.50;7.27;;;;;;;4.79;73.43;101205.22;5058328;28;20178;-68
2022/02/11 06:15:32;;;;;;;9.97;6.83;;;;;;;4.56;73.52;101202.59;5058307;28;20302;-69
2022/02/11 06:17:57;;;;;;;9.03;7.40;;;;;;;4.95;72.00;101209.28;5058807;28;20232;-69
2022/02/11 06:20:28;;;;;;;10.70;7.77;;;;;;;4.49;73.49;101213.44;5058236;28;20180;-68
2022/02/11 06:22:54;;;;;;;12.50;6.90;;;;;;;4.52;73.56;101218.78;5058118;28;20190;-68
2022/02/11 06:25:19;;;;;;;14.40;7.73;;;;;;;4.81;73.67;101211.34;5058900;28;20830;-68
2022/02/11 06:27:45;;;;;;;15.00;7.07;;;;;;;4.18;73.98;101218.22;5058130;28;20412;-68
2022/02/11 06:30:11;;;;;;;8.53;7.20;;;;;;;4.71;74.10;101221.28;5058357;28;20170;-68
2022/02/11 06:32:36;;;;;;;15.43;7.57;;;;;;;4.64;73.49;101219.28;5058422;28;20574;-68
2022/02/11 06:35:01;;;;;;;10.57;7.13;;;;;;;4.99;71.50;101224.09;5057892;28;20477;-67
2022/02/11 06:37:27;;;;;;;13.23;8.13;;;;;;;4.84;72.57;101219.19;5058035;28;20169;-67
2022/02/11 06:39:52;;;;;;;12.17;7.47;;;;;;;4.71;72.27;101216.13;5058714;28;20437;-67
2022/02/11 06:42:18;;;;;;;14.53;8.03;;;;;;;4.84;71.55;101222.69;5057998;28;20174;-68
2022/02/11 06:44:43;;;;;;;9.23;8.00;;;;;;;5.01;72.57;101222.47;5057822;28;20166;-68
2022/02/11 06:47:08;;;;;;;19.30;8.10;;;;;;;4.76;73.10;101220.59;5058323;28;20181;-67
2022/02/11 06:49:33;;;;;;;15.50;8.00;;;;;;;4.75;72.22;101229.16;5058090;28;20185;-68
2022/02/11 06:51:59;;;;;;;10.83;7.37;;;;;;;4.76;73.16;101236.94;5057749;28;20229;-68
2022/02/11 06:54:24;;;;;;;13.47;7.93;;;;;;;5.10;73.90;101230.59;5058143;28;20228;-68
2022/02/11 06:56:49;;;;;;;11.93;8.30;;;;;;;5.10;72.21;101237.44;5057862;28;20205;-67
2022/02/11 06:59:14;;;;;;;12.50;8.33;;;;;;;4.65;72.62;101245.97;5058053;28;20180;-68
2022/02/11 07:01:40;;;;;;;14.80;8.60;;;;;;;4.86;72.19;101248.56;5058823;28;20240;-68
2022/02/11 07:04:05;;;;;;;15.33;9.00;;;;;;;4.86;72.25;101244.28;5058682;28;20219;-68
2022/02/11 07:06:31;;;;;;;15.83;8.43;;;;;;;5.25;71.15;101248.41;5064318;28;20186;-68
2022/02/11 07:08:56;;;;;;;13.43;8.80;;;;;;;4.88;71.71;101254.66;5067695;28;20194;-67
2022/02/11 07:11:21;;;;;;;14.03;8.33;;;;;;;4.98;71.38;101256.81;5069115;28;20209;-68
2022/02/11 07:13:47;;;;;;;18.33;8.40;;;;;;;4.50;73.89;101261.69;5062455;28;20180;-67
2022/02/11 07:16:15;;;;;;;11.67;8.13;;;;;;;5.30;72.09;101251.16;5062594;28;20563;-67
2022/02/11 07:18:41;;;;;;;13.77;7.83;;;;;;;5.24;70.81;101257.00;5061861;28;20169;-67
2022/02/11 07:21:06;;;;;;;13.13;9.20;;;;;;;5.31;70.32;101246.06;5061012;28;20419;-67
2022/02/11 07:23:31;;;;;;;12.20;8.73;;;;;;;4.98;71.09;101258.50;5062147;28;20198;-68
2022/02/11 07:25:56;;;;;;;16.37;8.53;;;;;;;5.36;70.91;101252.28;5061754;28;20200;-69
2022/02/11 07:28:24;;;;;;;12.13;7.80;;;;;;;5.30;70.84;101256.34;5061618;28;20170;-67
2022/02/11 07:30:51;;;;;;;12.10;8.00;;;;;;;5.08;71.09;101270.13;5062237;28;20404;-67
2022/02/11 07:33:16;;;;;;;12.87;8.27;;;;;;;5.24;71.29;101269.91;5061524;28;20415;-69
2022/02/11 07:35:41;;;;;;;11.17;7.40;;;;;;;5.48;70.99;101269.09;5061588;28;20681;-68
2022/02/11 07:38:07;;;;;;;12.00;8.00;;;;;;;5.60;70.48;101271.28;5061956;28;20169;-68
2022/02/11 07:40:32;;;;;;;11.83;7.07;;;;;;;5.61;69.46;101273.91;5061547;28;20189;-69
2022/02/11 07:42:57;;;;;;;10.40;7.40;;;;;;;5.69;68.85;101271.63;5061456;28;20174;-67
2022/02/11 07:45:24;;;;;;;7.80;6.90;;;;;;;6.28;68.10;101279.88;5060957;28;20178;-67
2022/02/11 07:47:50;;;;;;;10.00;6.90;;;;;;;5.58;69.44;101289.34;5061319;28;20170;-67
2022/02/11 07:50:15;;;;;;;11.83;7.20;;;;;;;6.00;68.38;101291.81;5061160;28;20460;-67
2022/02/11 07:52:41;;;;;;;10.70;8.13;;;;;;;5.08;70.84;101309.75;5061641;28;20454;-68
2022/02/11 07:55:06;;;;;;;16.10;7.30;;;;;;;5.76;69.87;101308.97;5061681;28;20435;-69
2022/02/11 07:57:31;;;;;;;12.27;8.13;;;;;;;5.28;72.08;101320.03;5061228;28;20170;-68
2022/02/11 07:59:57;;;;;;;14.50;8.33;;;;;;;4.46;73.91;101319.19;5063055;28;20177;-68
2022/02/11 08:02:22;;;;;;;15.63;8.60;;;;;;;5.53;71.79;101312.44;5067173;28;20184;-67
2022/02/11 08:04:48;;;;;;;11.13;8.03;;;;;;;4.49;73.13;101322.78;5061961;28;20169;-67
2022/02/11 08:07:13;;;;;;;13.90;8.73;;;;;;;5.51;71.67;101319.25;5060326;28;20485;-68
2022/02/11 08:09:38;;;;;;;12.27;8.50;;;;;;;5.81;70.38;101326.44;5061081;28;20231;-67
2022/02/11 08:12:04;;;;;;;23.60;8.57;;;;;;;5.32;70.66;101327.97;5060640;28;20209;-68
2022/02/11 08:14:32;;;;;;;13.33;8.70;;;;;;;4.96;71.85;101340.25;5060976;28;20206;-68
2022/02/11 08:16:58;;;;;;;18.70;9.57;;;;;;;4.91;72.42;101345.22;5060731;28;20205;-69
2022/02/11 08:19:23;;;;;;;17.33;9.40;;;;;;;5.56;70.95;101342.69;5060132;28;20847;-69
2022/02/11 08:21:49;;;;;;;17.90;8.37;;;;;;;5.37;70.89;101360.06;5061097;28;20161;-69
2022/02/11 08:24:15;;;;;;;13.57;8.50;;;;;;;5.70;70.26;101359.66;5059649;28;20276;-68
2022/02/11 08:26:41;;;;;;;11.77;8.30;;;;;;;5.75;70.11;101362.44;5060366;28;20740;-68
2022/02/11 08:29:08;;;;;;;9.80;7.90;;;;;;;5.59;71.80;101357.44;5061106;28;20184;-68
2022/02/11 08:31:34;;;;;;;11.93;8.07;;;;;;;5.13;72.01;101366.78;5060065;28;20206;-68
2022/02/11 08:33:59;;;;;;;11.40;7.67;;;;;;;4.91;73.00;101363.28;5060170;28;20668;-69
2022/02/11 08:36:24;;;;;;;13.83;8.80;;;;;;;5.36;71.26;101370.34;5060686;28;20181;-68
2022/02/11 08:38:50;;;;;;;12.17;8.77;;;;;;;5.60;71.12;101365.25;5060259;28;20173;-69
2022/02/11 08:41:15;;;;;;;10.50;7.30;;;;;;;5.19;72.25;101383.44;5060101;28;20425;-69
2022/02/11 08:43:40;;;;;;;15.00;7.80;;;;;;;5.19;72.18;101392.91;5060331;28;20425;-66
2022/02/11 08:46:06;;;;;;;11.00;8.53;;;;;;;5.45;71.44;101391.41;5060319;28;20535;-67
2022/02/11 08:48:31;;;;;;;14.13;8.17;;;;;;;5.63;70.86;101399.03;5060148;28;20185;-69
2022/02/11 08:50:56;;;;;;;10.17;7.90;;;;;;;5.56;70.72;101404.75;5060198;28;20256;-68
2022/02/11 08:53:25;;;;;;;10.53;8.10;;;;;;;5.40;71.07;101406.72;5060022;28;20173;-69
2022/02/11 08:55:51;;;;;;;11.23;8.00;;;;;;;5.77;70.53;101415.09;5060226;28;20582;-68
2022/02/11 08:58:19;;;;;;;14.40;8.03;;;;;;;5.59;71.22;101420.44;5059812;28;20519;-70
2022/02/11 09:00:47;;;;;;;8.90;7.10;;;;;;;4.80;74.62;101431.72;5059790;28;20404;-68
2022/02/11 09:03:13;;;;;;;10.03;7.10;;;;;;;5.81;72.12;101442.00;5060152;28;20375;-68
2022/02/11 09:05:38;;;;;;;8.27;7.00;;;;;;;4.95;75.17;101447.91;5059471;28;20813;-68
2022/02/11 09:08:03;;;;;;;11.37;7.40;;;;;;;4.91;75.31;101451.16;5059875;28;20205;-68
2022/02/11 09:10:29;;;;;;;8.80;7.93;;;;;;;4.10;77.88;101467.28;5060021;28;20248;-69
2022/02/11 09:12:57;;;;;;;9.40;8.27;;;;;;;5.52;75.40;101462.34;5059401;28;20202;-68
2022/02/11 09:15:23;;;;;;;11.87;9.77;;;;;;;5.46;73.96;101465.56;5059399;28;20173;-71
2022/02/11 09:17:49;;;;;;;9.87;7.20;;;;;;;6.06;72.75;101470.66;5059999;28;20506;-71
2022/02/11 09:20:15;;;;;;;8.60;7.07;;;;;;;6.09;71.98;101474.19;5059581;28;20455;-71
2022/02/11 09:22:40;;;;;;;9.13;6.70;;;;;;;5.32;71.86;101471.88;5059346;28;20534;-70
2022/02/11 09:25:05;;;;;;;8.50;7.70;;;;;;;6.10;71.21;101491.47;5059638;28;20642;-71
2022/02/11 09:27:31;;;;;;;9.10;7.57;;;;;;;6.09;71.02;101489.72;5059130;28;20188;-71
2022/02/11 09:29:56;;;;;;;26.00;22.37;;;;;;;5.78;72.89;101509.13;5058869;28;20174;-70
2022/02/11 09:32:21;;;;;;;12.03;9.00;;;;;;;5.88;72.83;101511.28;5058816;28;20202;-67
2022/02/11 09:34:47;;;;;;;19.30;10.33;;;;;;;6.20;71.65;101519.53;5059029;28;20296;-70
2022/02/11 09:37:12;;;;;;;9.33;8.43;;;;;;;5.15;74.15;101528.88;5059163;28;20165;-69
2022/02/11 09:39:37;;;;;;;14.43;10.00;;;;;;;5.33;76.03;101534.00;5059424;28;20176;-70
2022/02/11 09:42:03;;;;;;;13.63;8.70;;;;;;;5.91;73.65;101545.03;5058967;28;20188;-69
2022/02/11 09:44:31;;;;;;;11.57;9.00;;;;;;;6.30;72.84;101547.53;5058082;28;20192;-68
2022/02/11 09:46:56;;;;;;;12.07;10.50;;;;;;;6.64;71.71;101555.75;5059447;28;20173;-69
2022/02/11 09:49:22;;;;;;;21.93;13.37;;;;;;;6.33;72.65;101563.22;5058000;28;20451;-68
2022/02/11 09:51:53;;;;;;;21.80;13.83;;;;;;;6.77;71.75;101564.91;5058612;28;20239;-67
2022/02/11 09:54:20;;;;;;;18.13;11.20;;;;;;;6.42;72.75;101572.16;5058919;28;20190;-68
2022/02/11 09:56:45;;;;;;;15.03;10.80;;;;;;;5.19;76.12;101584.19;5058857;28;20419;-68
2022/02/11 09:59:11;;;;;;;16.73;10.80;;;;;;;5.13;77.49;101583.91;5058786;28;20466;-70
2022/02/11 10:01:39;;;;;;;20.73;11.53;;;;;;;5.77;76.24;101590.19;5059475;28;20165;-68
2022/02/11 10:04:19;;;;;;;19.23;13.53;;;;;;;6.17;74.00;101599.63;5058460;28;20181;-68
2022/02/11 10:06:51;;;;;;;15.73;12.87;;;;;;;6.70;72.26;101600.94;5058576;28;20412;-69
2022/02/11 10:09:17;;;;;;;14.30;11.20;;;;;;;6.57;72.43;101612.50;5058554;28;20412;-68
2022/02/11 10:11:46;;;;;;;15.37;11.37;;;;;;;6.91;72.54;101612.94;5057924;28;20938;-70
2022/02/11 10:14:22;;;;;;;19.37;12.23;;;;;;;7.31;71.22;101617.06;5063091;28;20748;-69
2022/02/11 10:17:14;;;;;;;19.00;12.40;;;;;;;6.73;72.32;101626.94;5064890;28;20496;-70
2022/02/11 10:19:46;;;;;;;20.30;11.83;;;;;;;6.82;71.73;101646.28;5062158;28;20394;-70
2022/02/11 10:22:13;;;;;;;17.57;12.67;;;;;;;6.89;71.33;101656.09;5059104;28;20869;-70
2022/02/11 10:24:39;;;;;;;18.17;14.10;;;;;;;6.64;71.70;101665.44;5058336;28;20817;-69
2022/02/11 10:27:35;;;;;;;18.37;12.97;;;;;;;6.37;72.06;101672.97;5058304;28;20416;-69
2022/02/11 10:30:09;;;;;;;17.50;11.93;;;;;;;6.36;71.79;101682.47;5053819;28;20435;-71
2022/02/11 10:32:47;;;;;;;18.47;13.13;;;;;;;6.95;69.81;101692.59;5058154;28;20467;-71
2022/02/11 10:35:14;;;;;;;16.43;11.73;;;;;;;6.99;69.96;101698.81;5058232;28;20398;-70
2022/02/11 10:38:08;;;;;;;14.90;11.20;;;;;;;7.50;68.62;101703.38;5058528;28;20820;-70
2022/02/11 10:40:35;;;;;;;17.40;12.43;;;;;;;7.37;68.70;101715.88;5058091;28;20525;-70
2022/02/11 10:43:01;;;;;;;11.67;9.80;;;;;;;7.26;68.17;101717.16;5057812;28;20420;-69
2022/02/11 10:45:37;;;;;;;13.60;10.10;;;;;;;6.99;69.45;101725.59;5057882;28;20443;-70
2022/02/11 10:48:17;;;;;;;14.80;11.13;;;;;;;6.93;69.71;101737.44;5057161;28;20176;-69
2022/02/11 10:50:56;;;;;;;12.30;11.00;;;;;;;6.45;70.53;101749.28;5057520;28;20488;-68
2022/02/11 10:53:31;;;;;;;11.40;10.20;;;;;;;7.12;68.77;101750.34;5057645;28;20489;-72
2022/02/11 10:55:58;;;;;;;13.30;10.60;;;;;;;7.25;67.45;101751.69;5057698;28;20432;-69
2022/02/11 10:58:24;;;;;;;10.20;9.27;;;;;;;7.16;67.42;101756.53;5057777;28;20805;-74
2022/02/11 11:00:49;;;;;;;11.20;9.83;;;;;;;7.02;69.00;101764.63;5057805;28;20397;-68
2022/02/11 11:03:15;;;;;;;11.43;9.60;;;;;;;7.25;68.01;101765.56;5057604;28;20235;-68
2022/02/11 11:05:42;;;;;;;10.03;9.03;;;;;;;6.86;68.89;101778.66;5058154;28;20187;-68
2022/02/11 11:08:13;;;;;;;12.20;10.43;;;;;;;6.68;69.88;101783.94;5057669;28;20169;-72
2022/02/11 11:10:42;;;;;;;11.60;9.50;;;;;;;6.84;69.96;101788.06;5057482;28;20452;-66
2022/02/11 11:13:10;;;;;;;10.67;9.57;;;;;;;6.47;70.84;101794.28;5057497;28;20402;-69
2022/02/11 11:15:35;;;;;;;14.00;9.17;;;;;;;6.74;70.50;101793.72;5056515;28;20447;-70
2022/02/11 11:18:05;;;;;;;13.40;10.30;;;;;;;6.65;70.74;101796.78;5058224;28;20386;-69
2022/02/11 11:20:33;;;;;;;9.20;7.67;;;;;;;6.85;70.27;101799.34;5057678;28;20173;-70
2022/02/11 11:23:02;;;;;;;9.90;8.00;;;;;;;7.63;67.63;101812.00;5057360;28;20439;-69
2022/02/11 11:25:52;;;;;;;10.50;8.20;;;;;;;8.13;66.55;101811.25;5057314;28;20506;-69
2022/02/11 11:28:49;;;;;;;9.67;8.67;;;;;;;8.12;65.37;101812.97;5057544;28;20390;-68
2022/02/11 11:31:22;;;;;;;8.67;7.80;;;;;;;7.97;65.16;101817.56;5057305;28;20465;-69
2022/02/11 11:33:48;;;;;;;7.40;6.70;;;;;;;7.69;65.92;101842.50;5056668;28;20436;-69
2022/02/11 11:36:16;;;;;;;8.20;6.63;;;;;;;6.88;67.50;101839.22;5057268;28;20432;-70
2022/02/11 11:38:44;;;;;;;8.67;7.60;;;;;;;7.12;67.80;101847.97;5057284;28;20178;-71
2022/02/11 11:41:11;;;;;;;8.27;7.47;;;;;;;7.40;66.68;101853.47;5057897;28;20631;-70
2022/02/11 11:43:45;;;;;;;8.10;7.40;;;;;;;7.76;65.69;101858.34;5057080;28;20398;-70
2022/02/11 11:46:16;;;;;;;8.87;7.93;;;;;;;7.17;66.24;101860.31;5057369;28;20415;-70
2022/02/11 11:49:01;;;;;;;9.00;7.10;;;;;;;7.43;67.21;101876.06;5057449;28;20394;-70
2022/02/11 11:51:49;;;;;;;7.33;6.60;;;;;;;7.51;65.86;101882.47;5057166;28;20485;-71
2022/02/11 11:54:21;;;;;;;10.47;7.63;;;;;;;7.70;66.20;101884.09;5055107;28;20440;-71
2022/02/11 11:56:52;;;;;;;10.77;7.57;;;;;;;7.31;66.56;101886.81;5060565;28;20452;-70
2022/02/11 11:59:31;;;;;;;7.80;7.00;;;;;;;6.62;68.09;101887.34;5060845;28;20495;-70
2022/02/11 12:02:01;;;;;;;10.83;7.60;;;;;;;7.48;66.41;101889.22;5060687;28;20662;-70
2022/02/11 12:04:31;;;;;;;11.20;7.30;;;;;;;7.74;65.20;101892.88;5060889;28;20466;-74
2022/02/11 12:07:08;;;;;;;9.17;7.50;;;;;;;7.35;66.68;101899.09;5061125;28;20403;-74
2022/02/11 12:09:34;;;;;;;11.37;8.27;;;;;;;8.90;63.05;101892.91;5060801;28;20490;-71
2022/02/11 12:12:04;;;;;;;11.40;8.67;;;;;;;8.95;62.61;101898.25;5060466;28;20463;-70
2022/02/11 12:14:31;;;;;;;10.97;8.33;;;;;;;8.71;63.41;101909.56;5060401;28;20443;-70
2022/02/11 12:16:58;;;;;;;10.20;8.33;;;;;;;8.54;63.06;101902.88;5060035;28;20416;-71
2022/02/11 12:19:24;;;;;;;8.27;7.47;;;;;;;7.88;64.52;101922.84;5060974;28;20698;-71
2022/02/11 12:21:49;;;;;;;11.50;7.97;;;;;;;7.95;65.10;101925.72;5060418;28;20424;-70
2022/02/11 12:29:50;;;;;;;8.97;8.07;;;;;;;8.95;61.50;101939.00;5060362;28;20419;-70
2022/02/11 12:32:17;;;;;;;10.40;8.20;;;;;;;8.65;61.44;101940.53;5060302;28;20514;-71
2022/02/11 12:34:50;;;;;;;11.27;9.50;;;;;;;8.95;61.67;101942.47;5060005;28;20741;-70
2022/02/11 12:37:16;;;;;;;9.43;8.30;;;;;;;8.95;61.67;101950.28;5060203;28;20784;-71
2022/02/11 12:39:42;;;;;;;9.03;8.20;;;;;;;8.95;61.91;101955.47;5060208;28;20505;-70
2022/02/11 12:42:07;;;;;;;10.53;9.17;;;;;;;8.34;63.70;101954.94;5060619;28;20379;-68
2022/02/11 12:44:34;;;;;;;12.93;10.20;;;;;;;8.43;64.00;101957.88;5059856;28;20174;-71
2022/02/11 12:47:00;;;;;;;11.90;10.40;;;;;;;8.35;63.84;101967.09;5059970;28;20257;-68
2022/02/11 12:49:26;;;;;;;16.47;11.27;;;;;;;8.36;64.10;101963.69;5060532;28;20669;-70
2022/02/11 12:51:54;;;;;;;12.43;10.90;;;;;;;8.01;65.23;101962.28;5060009;28;20450;-70
2022/02/11 12:54:20;;;;;;;12.23;10.80;;;;;;;7.87;66.29;101977.31;5060244;28;20170;-70
2022/02/11 12:56:46;;;;;;;12.27;10.87;;;;;;;8.24;66.09;101979.69;5059942;28;20871;-69
2022/02/11 12:59:12;;;;;;;13.10;11.80;;;;;;;7.24;69.06;101996.34;5059895;28;20412;-70
2022/02/11 13:01:38;;;;;;;10.50;9.40;;;;;;;6.80;70.67;102003.91;5059672;28;20634;-74
2022/02/11 13:04:04;;;;;;;6.20;4.60;;;;;;;6.00;72.02;102013.97;5059893;28;20215;-70
2022/02/11 13:06:33;;;;;;;3.63;3.33;;;;;;;6.31;71.13;102018.06;5058492;28;20817;-69
2022/02/11 13:09:06;;;;;;;4.00;3.60;;;;;;;5.88;72.28;102034.94;5059693;28;20170;-69
2022/02/11 13:11:32;;;;;;;4.20;3.10;;;;;;;5.69;73.44;102037.41;5059526;28;20445;-69
2022/02/11 13:14:04;;;;;;;3.90;3.33;;;;;;;5.29;74.80;102056.03;5059503;28;20473;-69
2022/02/11 13:16:33;;;;;;;3.93;3.43;;;;;;;5.84;73.33;102063.19;5059629;28;20383;-71
2022/02/11 13:19:20;;;;;;;3.83;3.00;;;;;;;5.21;72.86;102063.44;5059618;28;20790;-69
2022/02/11 13:21:46;;;;;;;3.27;3.00;;;;;;;5.85;70.88;102075.31;5059789;28;20664;-70
2022/02/11 13:24:11;;;;;;;5.37;3.43;;;;;;;5.77;70.11;102084.38;5059722;28;20423;-71
2022/02/11 13:26:37;;;;;;;4.17;3.20;;;;;;;5.55;70.42;102089.34;5042640;28;20173;-68
2022/02/11 13:29:11;;;;;;;3.27;2.90;;;;;;;5.26;70.20;102103.31;5043041;28;20166;-70
2022/02/11 13:31:45;;;;;;;3.70;2.87;;;;;;;5.43;69.08;102108.50;5059429;28;20451;-70
2022/02/11 13:34:11;;;;;;;3.90;3.20;;;;;;;5.84;67.66;102100.28;5059200;28;20412;-68
2022/02/11 13:36:37;;;;;;;8.17;3.60;;;;;;;5.36;68.12;102115.94;5052045;28;20435;-71
2022/02/11 13:39:02;;;;;;;4.10;3.20;;;;;;;6.20;66.25;102117.66;5041958;28;20404;-71
2022/02/11 13:41:29;;;;;;;5.10;3.20;;;;;;;6.14;65.66;102125.97;5058390;28;20210;-69
2022/02/11 13:44:03;;;;;;;8.33;3.57;;;;;;;6.43;64.76;102147.28;5049934;28;20173;-70
2022/02/11 13:46:31;;;;;;;7.10;3.50;;;;;;;6.05;64.38;102156.59;5038820;28;20470;-70
2022/02/11 13:49:02;;;;;;;3.73;3.20;;;;;;;6.29;62.98;102149.19;5055484;28;20478;-70
2022/02/11 13:51:28;;;;;;;5.20;3.00;;;;;;;5.81;63.64;102166.53;5058262;28;20464;-70
2022/02/11 13:53:54;;;;;;;13.10;3.30;;;;;;;5.49;64.66;102176.06;5058603;28;20439;-70
2022/02/11 13:56:39;;;;;;;4.50;3.50;;;;;;;6.62;62.81;102176.69;5057446;28;20451;-70
2022/02/11 13:59:08;;;;;;;6.33;3.73;;;;;;;6.53;61.95;102175.38;5058419;28;20391;-70
2022/02/11 14:01:39;;;;;;;6.53;3.30;;;;;;;7.01;60.26;102175.13;5060073;28;20669;-66
2022/02/11 14:04:07;;;;;;;4.50;3.30;;;;;;;6.97;60.32;102180.97;5058371;28;20444;-68
2022/02/11 14:06:37;;;;;;;7.57;3.37;;;;;;;7.17;59.64;102187.09;5058435;28;20473;-69
2022/02/11 14:09:07;;;;;;;5.53;2.97;;;;;;;7.14;58.25;102205.09;5058451;28;20423;-69
2022/02/11 14:11:37;;;;;;;5.07;3.50;;;;;;;7.14;58.20;102214.59;5058175;28;20574;-69
2022/02/11 14:14:17;;;;;;;5.53;3.20;;;;;;;7.90;55.83;102209.44;5057935;28;20416;-70
2022/02/11 14:16:46;;;;;;;3.80;3.07;;;;;;;7.30;54.60;102217.09;5057596;28;20397;-68
2022/02/11 14:19:11;;;;;;;5.27;2.77;;;;;;;7.75;53.92;102214.84;5057921;28;20456;-71
2022/02/11 14:21:36;;;;;;;2.40;2.10;;;;;;;7.36;52.99;102224.25;5058254;28;20450;-71
2022/02/11 14:24:02;;;;;;;3.33;2.60;;;;;;;6.96;53.21;102224.97;5057989;28;20185;-72
2022/02/11 14:26:29;;;;;;;5.80;3.20;;;;;;;6.39;54.74;102246.38;5057385;28;20551;-72
2022/02/11 14:28:54;;;;;;;3.57;2.70;;;;;;;6.16;55.81;102252.97;5057552;28;20478;-71
2022/02/11 14:31:20;;;;;;;8.00;3.20;;;;;;;6.52;55.00;102253.97;5057934;28;20471;-71
2022/02/11 14:33:45;;;;;;;3.60;3.00;;;;;;;6.74;54.19;102255.91;5057799;28;20177;-72
2022/02/11 14:36:10;;;;;;;3.83;2.50;;;;;;;6.68;54.81;102263.38;5058384;28;20177;-72
2022/02/11 14:38:35;;;;;;;4.07;3.23;;;;;;;7.15;52.96;102268.25;5058077;28;20216;-71
2022/02/11 14:43:45;;;;;;;3.17;2.50;;;;;;;7.38;52.36;102271.94;5057298;28;20227;-70
2022/02/11 14:46:10;;;;;;;3.73;2.80;;;;;;;7.30;50.94;102273.28;5057387;28;20423;-71
2022/02/11 14:48:36;;;;;;;2.50;2.27;;;;;;;7.21;50.88;102274.63;5058268;28;20177;-71
2022/02/11 14:51:01;;;;;;;5.83;2.97;;;;;;;6.69;51.92;102287.59;5057593;28;20251;-70
2022/02/11 14:53:26;;;;;;;3.93;2.40;;;;;;;7.19;52.43;102284.00;5057458;28;20178;-71
2022/02/11 14:55:52;;;;;;;5.37;2.80;;;;;;;7.32;51.26;102293.28;5058058;28;20219;-67
2022/02/11 14:58:17;;;;;;;4.27;2.57;;;;;;;7.44;50.59;102303.34;5057704;28;20166;-69
2022/02/11 15:00:42;;;;;;;2.80;2.50;;;;;;;7.61;50.21;102301.56;5057665;28;20492;-68
2022/02/11 15:03:09;;;;;;;5.90;3.00;;;;;;;7.19;50.56;102309.94;5057508;28;20225;-69
2022/02/11 15:05:34;;;;;;;5.00;2.30;;;;;;;7.30;50.52;102314.78;5057635;28;20547;-69
2022/02/11 15:07:59;;;;;;;3.20;2.63;;;;;;;7.72;51.50;102313.31;5057613;28;20423;-69
2022/02/11 15:10:24;;;;;;;5.87;2.80;;;;;;;7.35;50.31;102323.69;5057810;28;20193;-70